Terminal Aerodrome Forecast
Issued by NWS Paducah, KY

Home | Current Version | Previous Version | Text Only | Print | Product List | Glossary Off
Versions: 1 2 3 4 5 6 7 8 9 10 11 12 13 14 15 16 17 18 19 20 21 22 23 24 25

856
FTUS43 KPAH 172320
TAFPAH
TAF
KPAH 172320Z 1800/1824 24006KT P6SM SCT030 BKN045
     FM180700 VRB03KT 6SM BR SCT045
     FM181300 VRB03KT P6SM SKC
     FM181600 29007KT P6SM SCT045=

USA.gov is the U.S. government's official web portal to all federal, state and local government web resources and services.